Time;durP1;ratioP1;P1;durP2;ratioP2;P2;SDS_P1;SDS_P2;PMS_P1;PMS_P2;Temp;Humidity;BMP_temperature;BMP_pressure;BME280_temperature;BME280_humidity;BME280_pressure;Samples;Min_cycle;Max_cycle;Signal;HPM_P1;HPM_P2
2021/11/07 00:07:23;;;;;;;2.47;1.42;;;6.50;49.50;;;;;;4988672;28;20030;-77
2021/11/07 00:10:01;;;;;;;1.63;1.30;;;6.40;49.40;;;;;;4994264;28;20033;-77
2021/11/07 00:12:32;;;;;;;2.92;1.50;;;6.40;50.00;;;;;;4995608;28;20029;-72
2021/11/07 00:14:58;;;;;;;3.13;1.75;;;6.30;51.20;;;;;;4993580;28;20029;-77
2021/11/07 00:17:30;;;;;;;2.47;1.65;;;6.00;53.80;;;;;;4993980;28;20023;-77
2021/11/07 00:20:02;;;;;;;6.55;1.67;;;5.80;55.10;;;;;;4993081;28;20446;-72
2021/11/07 00:25:27;;;;;;;2.95;1.73;;;5.40;57.00;;;;;;4993212;28;20113;-77
2021/11/07 00:27:57;;;;;;;2.40;1.33;;;5.30;55.70;;;;;;4992387;28;20455;-77
2021/11/07 00:33:30;;;;;;;3.15;1.80;;;5.20;54.70;;;;;;4992118;28;20426;-71
2021/11/07 00:44:07;;;;;;;;;;;5.50;52.20;;;;;;4989516;28;20032;-79
2021/11/07 00:49:10;;;;;;;;;;;5.90;50.00;;;;;;4981730;28;19913;-75
2021/11/07 00:54:28;;;;;;;;;;;6.00;50.60;;;;;;4983591;28;20362;-77
2021/11/07 00:57:00;;;;;;;;;;;6.00;50.30;;;;;;5009115;28;19906;-79
2021/11/07 01:02:01;;;;;;;;;;;6.00;50.00;;;;;;4994207;28;19913;-79
2021/11/07 01:04:29;;;;;;;;;;;6.10;50.10;;;;;;4993704;28;19906;-74
2021/11/07 01:06:54;;;;;;;;;;;6.10;50.10;;;;;;5025553;28;19906;-74
2021/11/07 01:09:20;;;;;;;;;;;6.10;49.80;;;;;;4993672;28;19912;-75
2021/11/07 01:11:46;;;;;;;;;;;6.00;50.00;;;;;;4992796;28;20047;-80
2021/11/07 01:14:12;;;;;;;;;;;6.00;50.40;;;;;;5025300;28;19928;-74
2021/11/07 01:16:38;;;;;;;;;;;5.90;50.20;;;;;;5025214;28;20010;-79
2021/11/07 01:19:04;;;;;;;;;;;5.90;50.40;;;;;;4999678;28;20376;-79
2021/11/07 01:21:34;;;;;;;;;;;5.90;50.20;;;;;;5004127;28;19905;-80
2021/11/07 01:24:03;;;;;;;;;;;5.80;50.40;;;;;;4992583;28;19905;-79
2021/11/07 01:26:39;;;;;;;;;;;5.80;50.30;;;;;;4993880;28;19955;-79
2021/11/07 01:29:21;;;;;;;;;;;5.80;49.70;;;;;;4988607;28;19905;-75
2021/11/07 01:31:48;;;;;;;;;;;5.80;50.80;;;;;;4992586;28;19910;-79
2021/11/07 01:34:25;;;;;;;;;;;5.90;49.60;;;;;;5025384;28;19937;-74
2021/11/07 01:37:08;;;;;;;;;;;5.90;49.60;;;;;;4993374;28;19925;-73
2021/11/07 01:39:40;;;;;;;;;;;5.90;49.60;;;;;;4989924;28;19905;-72
2021/11/07 01:42:14;;;;;;;;;;;5.90;49.80;;;;;;4993226;28;19956;-74
2021/11/07 01:44:44;;;;;;;;;;;5.90;50.40;;;;;;5024205;28;19913;-79
2021/11/07 01:47:11;;;;;;;;;;;5.80;50.80;;;;;;5008453;28;19982;-73
2021/11/07 01:49:40;;;;;;;;;;;5.70;50.40;;;;;;4993763;28;19912;-79
2021/11/07 01:52:08;;;;;;;;;;;5.70;50.40;;;;;;4996775;28;19906;-72
2021/11/07 01:54:47;;;;;;;;;;;5.60;50.10;;;;;;5010125;28;19905;-79
2021/11/07 01:57:14;;;;;;;;;;;5.60;49.60;;;;;;5005129;28;19921;-74
2021/11/07 01:59:43;;;;;;;;;;;5.60;50.00;;;;;;5011106;28;19992;-74
2021/11/07 02:02:12;;;;;;;;;;;5.60;49.40;;;;;;5010195;28;19905;-79
2021/11/07 02:04:38;;;;;;;;;;;5.70;49.60;;;;;;4996822;28;19910;-79
2021/11/07 02:07:04;;;;;;;;;;;5.70;50.00;;;;;;5028413;28;19910;-73
2021/11/07 02:09:30;;;;;;;;;;;5.80;48.70;;;;;;4996697;28;19905;-73
2021/11/07 02:11:55;;;;;;;;;;;6.00;47.80;;;;;;4996738;28;20255;-73
2021/11/07 02:14:21;;;;;;;;;;;6.10;47.60;;;;;;4996409;28;19913;-74
2021/11/07 02:16:46;;;;;;;;;;;6.30;46.10;;;;;;5034136;28;19912;-79
2021/11/07 02:19:15;;;;;;;;;;;6.40;45.70;;;;;;4998940;28;19996;-74
2021/11/07 02:21:43;;;;;;;;;;;6.60;45.10;;;;;;5010292;28;19960;-79
2021/11/07 02:24:09;;;;;;;;;;;6.70;45.00;;;;;;4996526;28;20433;-79
2021/11/07 02:26:34;;;;;;;;;;;6.70;45.20;;;;;;5028006;28;19941;-75
2021/11/07 02:29:00;;;;;;;;;;;6.70;45.30;;;;;;5004624;28;19951;-74
2021/11/07 02:31:27;;;;;;;;;;;6.70;45.50;;;;;;4994559;28;19914;-79
2021/11/07 02:33:52;;;;;;;;;;;6.60;45.60;;;;;;5027902;28;19910;-79
2021/11/07 02:36:18;;;;;;;1.02;0.52;;;6.60;45.40;;;;;;5000148;28;20382;-78
2021/11/07 02:38:46;;;;;;;1.27;0.50;;;6.60;45.10;;;;;;4998584;28;20029;-74
2021/11/07 02:41:12;;;;;;;1.77;0.65;;;6.70;44.30;;;;;;4997982;28;20022;-79
2021/11/07 02:43:45;;;;;;;1.42;0.70;;;6.70;44.40;;;;;;4993640;28;20034;-79
2021/11/07 02:46:17;;;;;;;0.70;0.50;;;6.80;44.10;;;;;;4995606;28;20023;-74
2021/11/07 02:48:45;;;;;;;1.73;0.70;;;6.90;43.20;;;;;;4994068;28;20038;-73
2021/11/07 02:51:11;;;;;;;1.15;0.50;;;6.90;45.50;;;;;;4995795;28;20031;-78
2021/11/07 02:53:37;;;;;;;1.98;0.60;;;6.90;43.60;;;;;;5010465;28;20026;-74
2021/11/07 02:56:03;;;;;;;1.73;0.63;;;6.90;44.10;;;;;;5009074;28;20069;-74
2021/11/07 02:58:29;;;;;;;1.25;0.55;;;6.80;43.90;;;;;;4995346;28;20447;-79
2021/11/07 03:00:55;;;;;;;1.38;0.50;;;6.90;43.60;;;;;;5010554;28;20108;-79
2021/11/07 03:03:21;;;;;;;1.40;0.57;;;6.90;43.50;;;;;;4995666;28;20112;-79
2021/11/07 03:05:47;;;;;;;1.20;0.50;;;7.00;43.60;;;;;;4998276;28;20026;-74
2021/11/07 03:08:12;;;;;;;1.25;0.75;;;7.00;43.70;;;;;;4995512;28;20054;-79
2021/11/07 03:10:38;;;;;;;1.15;0.70;;;6.90;45.00;;;;;;4995881;28;20042;-74
2021/11/07 03:13:09;;;;;;;1.15;0.60;;;6.70;47.30;;;;;;4997306;28;20368;-73
2021/11/07 03:15:36;;;;;;;1.95;0.70;;;6.60;48.10;;;;;;4993798;28;20159;-72
2021/11/07 03:18:03;;;;;;;2.25;1.00;;;6.30;49.80;;;;;;4994896;28;20026;-73
2021/11/07 03:20:28;;;;;;;2.60;1.70;;;6.10;51.50;;;;;;4993917;28;20049;-77
2021/11/07 03:22:56;;;;;;;3.67;2.35;;;5.80;54.30;;;;;;5000122;28;20022;-71
2021/11/07 03:25:23;;;;;;;2.35;1.77;;;5.50;56.20;;;;;;4995975;28;20018;-71
2021/11/07 03:27:49;;;;;;;3.08;2.30;;;5.30;56.60;;;;;;4993911;28;20019;-79
2021/11/07 03:32:57;;;;;;;1.50;1.20;;;5.00;56.90;;;;;;4994936;28;20030;-74
2021/11/07 03:35:23;;;;;;;;;;;4.90;57.40;;;;;;4995144;28;20072;-74
2021/11/07 03:37:55;;;;;;;;;;;4.80;57.60;;;;;;4993748;28;20428;-79
2021/11/07 03:40:22;;;;;;;;;;;4.70;54.90;;;;;;5006132;28;19913;-74
2021/11/07 03:42:48;;;;;;;;;;;5.00;51.00;;;;;;4994929;28;19959;-79
2021/11/07 03:45:13;;;;;;;;;;;5.20;49.80;;;;;;5010727;28;20000;-79
2021/11/07 03:47:39;;;;;;;;;;;5.30;49.80;;;;;;4993648;28;19913;-77
2021/11/07 03:50:07;;;;;;;;;;;5.50;47.70;;;;;;5009808;28;19905;-79
2021/11/07 03:52:32;;;;;;;;;;;5.60;47.60;;;;;;5002761;28;19916;-74
2021/11/07 03:54:58;;;;;;;;;;;5.70;48.40;;;;;;5001103;28;19906;-78
2021/11/07 03:57:23;;;;;;;;;;;5.70;47.90;;;;;;4994783;28;19910;-73
2021/11/07 03:59:49;;;;;;;;;;;5.70;48.10;;;;;;4994797;28;19906;-74
2021/11/07 04:02:15;;;;;;;;;;;5.70;47.50;;;;;;4994804;28;20321;-74
2021/11/07 04:04:41;;;;;;;;;;;5.80;47.60;;;;;;4994289;28;19913;-78
2021/11/07 04:07:06;;;;;;;;;;;5.80;47.70;;;;;;4994347;28;19906;-79
2021/11/07 04:09:32;;;;;;;;;;;5.80;47.70;;;;;;4993533;28;19917;-78
2021/11/07 04:11:59;;;;;;;;;;;5.80;47.70;;;;;;4992731;28;19906;-79
2021/11/07 04:14:24;;;;;;;;;;;5.80;47.90;;;;;;4981875;28;19948;-73
2021/11/07 04:16:50;;;;;;;;;;;5.80;47.90;;;;;;5009398;28;19906;-75
2021/11/07 04:19:16;;;;;;;;;;;5.80;48.00;;;;;;4994415;28;19906;-73
2021/11/07 04:21:45;;;;;;;;;;;5.70;51.10;;;;;;4994536;28;19913;-73
2021/11/07 04:24:10;;;;;;;;;;;5.10;57.30;;;;;;4993783;28;20282;-73
2021/11/07 04:26:36;;;;;;;;;;;4.30;61.80;;;;;;4998134;28;19913;-79
2021/11/07 04:29:03;;;;;;;;;;;3.90;63.10;;;;;;4995775;28;19913;-74
2021/11/07 04:31:29;;;;;;;;;;;3.60;64.40;;;;;;4994275;28;19906;-79
2021/11/07 04:33:54;;;;;;;;;;;3.40;65.40;;;;;;4994383;28;20428;-79
2021/11/07 04:36:20;;;;;;;;;;;3.30;66.60;;;;;;4993850;28;19918;-75
2021/11/07 04:38:46;;;;;;;;;;;3.30;66.50;;;;;;4995581;28;19920;-79
2021/11/07 04:41:17;;;;;;;;;;;3.30;67.70;;;;;;4994074;28;20001;-74
2021/11/07 04:43:44;;;;;;;;;;;3.20;67.30;;;;;;5025831;28;19910;-74
2021/11/07 04:46:13;;;;;;;;;;;3.20;67.40;;;;;;4993105;28;19906;-73
2021/11/07 04:48:40;;;;;;;;;;;3.20;68.10;;;;;;4996143;28;19912;-79
2021/11/07 04:51:06;;;;;;;;;;;3.10;67.30;;;;;;4996891;28;19928;-79
2021/11/07 04:53:31;;;;;;;;;;;3.10;68.30;;;;;;5004404;28;19905;-75
2021/11/07 04:55:57;;;;;;;;;;;3.10;67.90;;;;;;5000796;28;19906;-79
2021/11/07 04:58:22;;;;;;;;;;;3.10;68.00;;;;;;5025527;28;20385;-79
2021/11/07 05:00:48;;;;;;;;;;;3.00;67.90;;;;;;5000594;28;20358;-74
2021/11/07 05:03:14;;;;;;;;;;;3.00;67.40;;;;;;5008882;28;20258;-79
2021/11/07 05:05:39;;;;;;;;;;;3.00;67.70;;;;;;4999123;28;20043;-74
2021/11/07 05:08:06;;;;;;;;;;;2.90;69.30;;;;;;4999072;28;20274;-79
2021/11/07 05:10:32;;;;;;;;;;;2.80;69.50;;;;;;5030615;28;19906;-79
2021/11/07 05:12:58;;;;;;;;;;;2.70;69.70;;;;;;4998933;28;20310;-74
2021/11/07 05:15:23;;;;;;;;;;;2.70;69.30;;;;;;4996870;28;19906;-79
2021/11/07 05:17:49;;;;;;;;;;;2.60;70.10;;;;;;4992594;28;19910;-79
2021/11/07 05:20:14;;;;;;;;;;;2.50;69.90;;;;;;4993892;28;19945;-79
2021/11/07 05:22:40;;;;;;;;;;;2.50;70.40;;;;;;5008758;28;19906;-74
2021/11/07 05:25:07;;;;;;;;;;;2.40;72.20;;;;;;4998704;28;19906;-73
2021/11/07 05:27:33;;;;;;;;;;;2.40;72.00;;;;;;4993296;28;19910;-79
2021/11/07 05:29:58;;;;;;;;;;;2.40;72.50;;;;;;4993576;28;19933;-74
2021/11/07 05:32:24;;;;;;;;;;;2.30;72.60;;;;;;4995767;28;19906;-74
2021/11/07 05:34:50;;;;;;;;;;;2.30;72.50;;;;;;4994414;28;19905;-79
2021/11/07 05:37:15;;;;;;;;;;;2.20;72.80;;;;;;4998234;28;19925;-74
2021/11/07 05:39:41;;;;;;;;;;;2.20;73.20;;;;;;4999368;28;19997;-79
2021/11/07 05:42:06;;;;;;;;;;;2.20;72.40;;;;;;4997370;28;19906;-74
2021/11/07 05:44:32;;;;;;;;;;;2.10;71.90;;;;;;5012202;28;20263;-73
2021/11/07 05:46:58;;;;;;;;;;;2.10;71.20;;;;;;4996302;28;20009;-74
2021/11/07 05:49:23;;;;;;;;;;;2.00;71.10;;;;;;5002521;28;19905;-79
2021/11/07 05:51:49;;;;;;;;;;;1.60;73.10;;;;;;5007554;28;19905;-74
2021/11/07 05:54:15;;;;;;;;;;;1.50;74.40;;;;;;5015440;28;19906;-73
2021/11/07 05:56:41;;;;;;;;;;;1.20;75.90;;;;;;5000151;28;19933;-79
2021/11/07 05:59:07;;;;;;;;;;;1.10;76.90;;;;;;4985217;28;20350;-79
2021/11/07 06:01:34;;;;;;;;;;;1.20;76.60;;;;;;5028799;28;19917;-75
2021/11/07 06:03:59;;;;;;;;;;;1.20;77.60;;;;;;4996762;28;19906;-74
2021/11/07 06:06:25;;;;;;;;;;;1.20;76.80;;;;;;4996826;28;19906;-79
2021/11/07 06:08:51;;;;;;;;;;;1.30;75.50;;;;;;5028392;28;19928;-79
2021/11/07 06:11:16;;;;;;;;;;;1.40;71.10;;;;;;5011432;28;19928;-79
2021/11/07 06:13:42;;;;;;;;;;;1.70;67.50;;;;;;4976310;28;20208;-76
2021/11/07 06:16:07;;;;;;;;;;;2.10;63.70;;;;;;4996992;28;19917;-73
2021/11/07 06:18:33;;;;;;;;;;;2.50;61.80;;;;;;4995472;28;19936;-79
2021/11/07 06:20:59;;;;;;;0.73;0.50;;;2.90;59.20;;;;;;4996096;28;19905;-79
2021/11/07 06:23:25;;;;;;;1.88;0.80;;;3.30;57.80;;;;;;4993983;28;20405;-74
2021/11/07 06:25:51;;;;;;;1.38;0.77;;;3.50;56.30;;;;;;4994838;28;20393;-79
2021/11/07 06:28:19;;;;;;;2.00;1.13;;;3.80;55.10;;;;;;4994987;28;20396;-79
2021/11/07 06:30:48;;;;;;;0.70;0.52;;;4.10;54.10;;;;;;4995782;28;20386;-79
2021/11/07 06:33:15;;;;;;;;;;;4.40;52.40;;;;;;4997852;28;20050;-73
2021/11/07 06:35:41;;;;;;;;;;;4.60;51.50;;;;;;4996565;28;19916;-74
2021/11/07 06:38:06;;;;;;;;;;;4.70;51.10;;;;;;5027640;28;19922;-79
2021/11/07 06:40:33;;;;;;;;;;;4.70;51.30;;;;;;5028018;28;20099;-74
2021/11/07 06:42:59;;;;;;;;;;;4.70;51.30;;;;;;5027543;28;19912;-74
2021/11/07 06:45:24;;;;;;;0.65;0.32;;;4.70;51.30;;;;;;5010931;28;20354;-79
2021/11/07 06:47:50;;;;;;;1.42;0.40;;;4.90;50.40;;;;;;4994573;28;20026;-79
2021/11/07 06:50:17;;;;;;;1.45;0.57;;;4.90;49.70;;;;;;5010401;28;20019;-79
2021/11/07 06:52:44;;;;;;;0.82;0.38;;;5.10;49.30;;;;;;4994687;28;20042;-75
2021/11/07 06:55:11;;;;;;;0.80;0.43;;;5.20;48.40;;;;;;5010622;28;20022;-79
2021/11/07 06:57:38;;;;;;;0.98;0.60;;;5.30;48.70;;;;;;4994195;28;20030;-73
2021/11/07 07:00:10;;;;;;;0.57;0.40;;;5.50;47.50;;;;;;4995729;28;20026;-75
2021/11/07 07:02:39;;;;;;;3.53;0.50;;;5.60;47.20;;;;;;5003794;28;20385;-80
2021/11/07 07:05:06;;;;;;;1.63;0.50;;;5.70;47.00;;;;;;4993075;28;20390;-74
2021/11/07 07:07:35;;;;;;;1.45;0.50;;;5.80;47.90;;;;;;5003046;28;20030;-78
2021/11/07 07:10:04;;;;;;;0.98;0.50;;;5.80;48.20;;;;;;4995487;28;20022;-73
2021/11/07 07:12:48;;;;;;;0.90;0.50;;;5.90;46.60;;;;;;4994758;28;20037;-79
2021/11/07 07:31:52;;;;;;;2.33;1.42;;;7.70;44.20;;;;;;4994243;28;20401;-73
2021/11/07 07:34:21;;;;;;;4.07;2.10;;;7.90;47.50;;;;;;4992870;28;20417;-73
2021/11/07 07:36:47;;;;;;;3.22;2.58;;;7.80;50.90;;;;;;4992756;28;20496;-78
2021/11/07 07:39:13;;;;;;;3.97;2.90;;;7.70;51.50;;;;;;4991586;28;20857;-74
2021/11/07 07:41:39;;;;;;;3.17;1.97;;;7.50;52.40;;;;;;4992554;28;20392;-74
2021/11/07 07:44:08;;;;;;;2.65;1.88;;;7.60;50.10;;;;;;4996873;28;20260;-74
2021/11/07 07:46:41;;;;;;;3.22;1.92;;;7.90;51.10;;;;;;4992864;28;20011;-75
2021/11/07 07:49:07;;;;;;;4.15;1.83;;;8.10;51.50;;;;;;4995523;28;20033;-79
2021/11/07 07:51:34;;;;;;;3.92;1.80;;;8.10;50.90;;;;;;4993946;28;20030;-78
2021/11/07 07:54:04;;;;;;;3.47;1.90;;;8.20;51.10;;;;;;4993140;28;20866;-79
2021/11/07 07:56:31;;;;;;;3.05;1.73;;;8.10;51.50;;;;;;5001959;28;20028;-79
2021/11/07 07:58:57;;;;;;;2.72;1.50;;;8.30;51.40;;;;;;4999516;28;20402;-74
2021/11/07 08:01:23;;;;;;;2.00;1.25;;;8.40;51.50;;;;;;4993535;28;20015;-73
2021/11/07 08:03:50;;;;;;;2.63;1.80;;;8.50;51.00;;;;;;4992981;28;20502;-78
2021/11/07 08:06:16;;;;;;;3.70;1.95;;;8.40;50.60;;;;;;4989895;28;20459;-74
2021/11/07 08:08:42;;;;;;;4.03;2.00;;;8.40;52.30;;;;;;4994881;28;20096;-79
2021/11/07 08:11:08;;;;;;;3.67;2.72;;;8.50;54.10;;;;;;4996326;28;20030;-74
2021/11/07 08:13:33;;;;;;;3.80;2.33;;;8.60;52.30;;;;;;4998413;28;20376;-74
2021/11/07 08:15:59;;;;;;;3.87;2.53;;;8.70;51.30;;;;;;4993503;28;20495;-79
2021/11/07 08:18:26;;;;;;;4.30;2.57;;;8.90;50.50;;;;;;4992627;28;20456;-71
2021/11/07 08:20:52;;;;;;;5.78;2.15;;;9.10;50.70;;;;;;4991592;28;20385;-75
2021/11/07 08:23:21;;;;;;;4.28;2.90;;;9.30;51.00;;;;;;4993625;28;20018;-76
2021/11/07 08:25:48;;;;;;;3.00;1.85;;;9.50;50.20;;;;;;4993411;28;20023;-78
2021/11/07 08:28:18;;;;;;;4.68;1.88;;;9.70;50.30;;;;;;5008365;28;20094;-74
2021/11/07 08:30:43;;;;;;;3.53;1.60;;;9.90;50.40;;;;;;4992890;28;20165;-75
2021/11/07 08:33:10;;;;;;;3.17;1.50;;;10.00;46.50;;;;;;5007163;28;20476;-76
2021/11/07 08:35:41;;;;;;;2.15;1.27;;;10.20;47.10;;;;;;4989497;28;20112;-76
2021/11/07 08:38:18;;;;;;;3.28;1.08;;;10.40;46.80;;;;;;4993224;28;20125;-79
2021/11/07 08:40:47;;;;;;;3.08;1.10;;;10.60;46.00;;;;;;4991708;28;20034;-74
2021/11/07 08:54:30;;;;;;;2.05;0.80;;;10.80;44.70;;;;;;4992972;28;20025;-76
2021/11/07 09:05:33;;;;;;;1.80;0.80;;;12.10;39.90;;;;;;4992003;28;20038;-75
2021/11/07 09:10:33;;;;;;;1.85;0.82;;;12.30;40.50;;;;;;4995538;28;20031;-79
2021/11/07 09:13:02;;;;;;;2.10;1.10;;;12.40;43.70;;;;;;4997615;28;20053;-78
2021/11/07 09:15:28;;;;;;;;;;;12.50;43.60;;;;;;5012799;28;20479;-78
2021/11/07 09:17:55;;;;;;;;;;;12.20;41.30;;;;;;4997649;28;19916;-78
2021/11/07 09:23:17;;;;;;;2.03;0.80;;;12.20;42.20;;;;;;4982596;28;20066;-78
2021/11/07 09:28:32;;;;;;;1.23;1.00;;;12.00;41.00;;;;;;4986311;28;20030;-75
2021/11/07 09:36:10;;;;;;;1.45;0.80;;;12.50;38.70;;;;;;4997055;28;20022;-78
2021/11/07 09:43:53;;;;;;;1.60;0.88;;;12.90;35.60;;;;;;4986722;28;20029;-74
2021/11/07 09:51:55;;;;;;;2.28;1.48;;;13.10;36.50;;;;;;4996736;28;20084;-77
2021/11/07 09:54:22;;;;;;;3.22;1.65;;;13.00;36.70;;;;;;5030107;28;20022;-74
2021/11/07 09:56:53;;;;;;;4.03;2.33;;;13.20;39.00;;;;;;4995273;28;20375;-79
2021/11/07 09:59:20;;;;;;;5.00;3.08;;;13.20;38.50;;;;;;4984723;28;20164;-78
2021/11/07 10:01:50;;;;;;;4.18;2.42;;;13.30;38.60;;;;;;5008407;28;20025;-78
2021/11/07 10:04:21;;;;;;;5.32;2.30;;;13.30;38.70;;;;;;5038969;28;20113;-78
2021/11/07 10:06:50;;;;;;;3.85;2.42;;;13.40;39.30;;;;;;4996272;28;20019;-73
2021/11/07 10:09:34;;;;;;;5.50;3.20;;;13.30;38.60;;;;;;4995982;28;20102;-78
2021/11/07 10:12:09;;;;;;;3.70;2.35;;;13.40;41.90;;;;;;4990649;28;20030;-77
2021/11/07 10:15:01;;;;;;;4.38;2.83;;;13.50;42.10;;;;;;5009231;28;20431;-77
2021/11/07 10:17:56;;;;;;;5.40;2.95;;;13.50;41.90;;;;;;4996034;28;20018;-75
2021/11/07 10:20:49;;;;;;;4.90;2.75;;;13.40;41.60;;;;;;5004364;28;20022;-78
2021/11/07 10:23:46;;;;;;;4.18;2.78;;;13.60;42.80;;;;;;4995253;28;20146;-74
2021/11/07 10:26:28;;;;;;;7.45;3.78;;;13.80;42.60;;;;;;4995106;28;20022;-78
2021/11/07 10:28:57;;;;;;;5.38;3.08;;;14.00;41.90;;;;;;4989630;28;20050;-78
2021/11/07 10:31:29;;;;;;;4.72;2.85;;;14.00;40.50;;;;;;5011548;28;20026;-74
2021/11/07 10:39:29;;;;;;;5.85;3.00;;;13.70;40.90;;;;;;4991510;28;20058;-77
2021/11/07 10:52:42;;;;;;;4.32;2.85;;;14.10;39.30;;;;;;4985451;28;20117;-73
2021/11/07 10:55:21;;;;;;;4.88;2.97;;;14.10;40.60;;;;;;5001020;28;20026;-76
2021/11/07 10:57:56;;;;;;;8.68;3.35;;;14.40;40.70;;;;;;4994344;28;21277;-74
2021/11/07 11:00:32;;;;;;;4.03;2.80;;;14.50;40.20;;;;;;4991304;28;20026;-78
2021/11/07 11:03:08;;;;;;;6.53;3.10;;;14.60;39.60;;;;;;4993284;28;20372;-77
2021/11/07 11:05:52;;;;;;;6.18;2.78;;;14.70;38.70;;;;;;4994641;28;20081;-78
2021/11/07 11:08:24;;;;;;;5.43;2.78;;;14.70;39.30;;;;;;4996501;28;20071;-74
2021/11/07 11:34:17;;;;;;;3.03;1.83;;;15.40;35.20;;;;;;4994311;28;20042;-78
2021/11/07 11:36:54;;;;;;;4.43;2.50;;;15.50;35.50;;;;;;5009212;28;20078;-78
2021/11/07 11:39:26;;;;;;;4.43;2.22;;;15.60;35.00;;;;;;4992439;28;20065;-75
2021/11/07 11:42:04;;;;;;;5.60;3.23;;;15.80;36.50;;;;;;4993335;28;20061;-77
2021/11/07 11:44:32;;;;;;;3.97;2.42;;;15.70;36.10;;;;;;4995235;28;20026;-76
2021/11/07 11:50:27;;;;;;;5.80;2.50;;;15.90;37.00;;;;;;4994273;28;20062;-77
2021/11/07 11:55:50;;;;;;;3.78;2.30;;;15.80;34.00;;;;;;4993583;28;20483;-74
2021/11/07 11:58:34;;;;;;;3.90;2.30;;;15.80;34.90;;;;;;4990072;28;20441;-78
2021/11/07 12:01:05;;;;;;;3.42;1.95;;;16.20;34.80;;;;;;4991604;28;20011;-73
2021/11/07 12:06:49;;;;;;;4.90;2.40;;;16.50;33.70;;;;;;4993534;28;20057;-78
2021/11/07 12:09:43;;;;;;;3.20;2.20;;;16.50;33.90;;;;;;4992168;28;20390;-73
2021/11/07 12:12:14;;;;;;;;;;;16.30;33.10;;;;;;4991912;28;20022;-74
2021/11/07 12:15:06;;;;;;;3.38;2.00;;;16.50;35.00;;;;;;5025147;28;19913;-76
2021/11/07 12:17:37;;;;;;;4.82;2.78;;;16.50;33.50;;;;;;4993688;28;20482;-74
2021/11/07 12:20:26;;;;;;;3.88;2.10;;;16.70;34.90;;;;;;4994196;28;20062;-78
2021/11/07 12:23:16;;;;;;;4.28;2.47;;;16.70;35.30;;;;;;4990978;28;20073;-79
2021/11/07 12:25:44;;;;;;;4.88;2.92;;;16.50;34.60;;;;;;4993665;28;20109;-74
2021/11/07 12:28:11;;;;;;;10.63;3.10;;;16.40;34.60;;;;;;4993089;28;20023;-77
2021/11/07 12:30:39;;;;;;;5.15;2.63;;;16.30;35.00;;;;;;4993303;28;20025;-78
2021/11/07 12:33:14;;;;;;;5.93;3.58;;;16.40;35.20;;;;;;4992809;28;20030;-73
2021/11/07 12:36:07;;;;;;;5.15;3.33;;;16.40;34.60;;;;;;4993211;28;20026;-75
2021/11/07 12:41:24;;;;;;;5.38;3.63;;;16.90;35.90;;;;;;4993747;28;20029;-74
2021/11/07 12:44:02;;;;;;;6.57;3.38;;;17.20;36.20;;;;;;4993732;28;20029;-74
2021/11/07 12:49:30;;;;;;;6.72;3.97;;;17.20;34.10;;;;;;4993698;28;20030;-72
2021/11/07 12:52:07;;;;;;;4.95;3.00;;;17.00;34.10;;;;;;4992506;28;20384;-78
2021/11/07 12:54:38;;;;;;;4.32;3.05;;;17.00;35.20;;;;;;4993368;28;20018;-78
2021/11/07 12:57:05;;;;;;;6.10;3.45;;;17.20;36.70;;;;;;4993200;28;20478;-75
2021/11/07 12:59:45;;;;;;;6.38;3.72;;;17.20;35.40;;;;;;5001192;28;20478;-78
2021/11/07 13:02:11;;;;;;;5.07;3.13;;;17.20;34.00;;;;;;4998819;28;20065;-72
2021/11/07 13:04:50;;;;;;;7.20;4.45;;;17.10;34.40;;;;;;5008606;28;20034;-72
2021/11/07 13:07:34;;;;;;;5.65;3.75;;;17.00;34.20;;;;;;5026279;28;20054;-73
2021/11/07 13:10:07;;;;;;;5.30;3.88;;;17.10;35.00;;;;;;4996222;28;20025;-75
2021/11/07 13:12:49;;;;;;;6.50;4.03;;;17.20;35.90;;;;;;4993163;28;20466;-77
2021/11/07 13:15:34;;;;;;;6.18;3.83;;;17.30;35.10;;;;;;4991762;28;20031;-74
2021/11/07 13:20:53;;;;;;;7.18;4.40;;;17.40;35.20;;;;;;4993242;28;20062;-74
2021/11/07 13:26:10;;;;;;;5.22;3.08;;;17.60;35.80;;;;;;5003051;28;20065;-79
2021/11/07 13:31:17;;;;;;;6.78;3.70;;;17.80;36.30;;;;;;4994866;28;20034;-77
2021/11/07 13:33:44;;;;;;;6.47;3.90;;;17.80;35.90;;;;;;4991936;28;20087;-78
2021/11/07 13:36:16;;;;;;;5.90;3.70;;;17.70;33.40;;;;;;4992319;28;20029;-74
2021/11/07 13:38:59;;;;;;;8.13;4.88;;;17.40;33.50;;;;;;5027397;28;20499;-77
2021/11/07 13:41:26;;;;;;;7.40;4.28;;;17.00;34.30;;;;;;4991749;28;20022;-74
2021/11/07 13:44:11;;;;;;;7.85;4.05;;;16.70;34.60;;;;;;4992230;28;20018;-77
2021/11/07 13:46:55;;;;;;;5.28;3.53;;;16.60;35.30;;;;;;4990766;28;20042;-77
2021/11/07 13:49:22;;;;;;;5.93;4.10;;;16.60;36.40;;;;;;4991617;28;20427;-75
2021/11/07 13:52:03;;;;;;;7.88;4.43;;;16.60;36.70;;;;;;4992373;28;20026;-78
2021/11/07 13:54:36;;;;;;;5.50;3.67;;;16.50;35.70;;;;;;4989993;28;20053;-74
2021/11/07 13:57:02;;;;;;;6.00;3.95;;;16.40;36.80;;;;;;4992357;28;20069;-77
2021/11/07 13:59:39;;;;;;;5.55;3.33;;;16.40;36.60;;;;;;4995219;28;20048;-75
2021/11/07 14:02:13;;;;;;;8.30;3.85;;;16.50;36.70;;;;;;4994962;28;20104;-78
2021/11/07 14:04:42;;;;;;;7.38;3.95;;;16.30;36.80;;;;;;4995553;28;20034;-74
2021/11/07 14:07:26;;;;;;;7.63;4.10;;;16.20;36.80;;;;;;5001049;28;20098;-74
2021/11/07 14:09:56;;;;;;;7.45;4.15;;;16.10;37.20;;;;;;4994873;28;20019;-78
2021/11/07 14:12:41;;;;;;;5.60;3.75;;;16.10;37.90;;;;;;4997732;28;20014;-77
2021/11/07 14:15:29;;;;;;;6.95;3.95;;;16.00;38.30;;;;;;4995590;28;20622;-77
2021/11/07 14:18:17;;;;;;;7.65;4.68;;;15.90;38.00;;;;;;5024864;28;20030;-75
2021/11/07 14:20:48;;;;;;;6.72;3.95;;;15.80;38.70;;;;;;4991277;28;20410;-74
2021/11/07 14:23:25;;;;;;;7.30;4.68;;;15.70;38.80;;;;;;5037829;28;20026;-77
2021/11/07 14:25:58;;;;;;;8.98;5.00;;;15.60;39.10;;;;;;4992892;28;20015;-78
2021/11/07 14:28:34;;;;;;;6.30;3.97;;;15.60;38.70;;;;;;5010859;28;20069;-73
2021/11/07 14:31:02;;;;;;;6.38;3.40;;;15.50;38.70;;;;;;4995793;28;20382;-79
2021/11/07 14:33:44;;;;;;;7.75;3.47;;;15.40;39.10;;;;;;5010846;28;20112;-75
2021/11/07 14:36:26;;;;;;;7.32;3.78;;;15.40;39.40;;;;;;5000738;28;20470;-77
2021/11/07 14:39:13;;;;;;;6.88;3.75;;;15.40;39.20;;;;;;4995907;28;20410;-74
2021/11/07 14:41:50;;;;;;;6.70;3.80;;;15.30;39.30;;;;;;4995643;28;20076;-77
2021/11/07 14:47:45;;;;;;;5.97;3.92;;;15.20;39.70;;;;;;4988840;28;20026;-75
2021/11/07 14:50:42;;;;;;;7.38;4.22;;;15.20;40.30;;;;;;4994610;28;20378;-78
2021/11/07 14:53:20;;;;;;;;;;;15.10;39.70;;;;;;4979614;28;20438;-77
2021/11/07 14:58:39;;;;;;;7.97;4.13;;;15.10;40.00;;;;;;4993007;28;20029;-77
2021/11/07 15:01:16;;;;;;;;;;;15.00;40.20;;;;;;4992028;28;20431;-80
2021/11/07 15:03:49;;;;;;;;;;;15.00;40.60;;;;;;4995898;28;19905;-77
2021/11/07 15:06:30;;;;;;;10.00;3.97;;;15.00;41.10;;;;;;5027204;28;19945;-74
2021/11/07 15:09:03;;;;;;;9.15;4.43;;;14.90;40.80;;;;;;5009195;28;20030;-73
2021/11/07 15:11:56;;;;;;;8.35;3.67;;;14.90;40.70;;;;;;4993779;28;20053;-75
2021/11/07 15:14:42;;;;;;;6.38;3.25;;;14.90;41.00;;;;;;4994703;28;20019;-75
2021/11/07 15:17:41;;;;;;;7.13;3.38;;;14.80;41.20;;;;;;4994254;28;20027;-79
2021/11/07 15:20:59;;;;;;;7.78;4.45;;;14.80;41.00;;;;;;4980142;28;20031;-77
2021/11/07 15:23:30;;;;;;;7.15;4.40;;;14.70;40.90;;;;;;4990068;28;20122;-77
2021/11/07 15:25:56;;;;;;;7.55;4.43;;;14.80;41.00;;;;;;4994246;28;20360;-76
2021/11/07 15:28:28;;;;;;;7.40;5.00;;;14.80;40.90;;;;;;5028121;28;20388;-77
2021/11/07 15:30:55;;;;;;;7.07;4.47;;;14.80;42.10;;;;;;4996141;28;20478;-77
2021/11/07 15:33:21;;;;;;;6.50;4.53;;;14.90;44.30;;;;;;5008803;28;20437;-75
2021/11/07 15:35:50;;;;;;;7.73;4.70;;;14.90;43.60;;;;;;5009002;28;20389;-75
2021/11/07 15:38:18;;;;;;;7.13;4.20;;;14.80;41.50;;;;;;4995595;28;20411;-77
2021/11/07 15:40:45;;;;;;;5.43;3.92;;;14.70;42.10;;;;;;4991905;28;20750;-75
2021/11/07 15:43:19;;;;;;;5.82;4.10;;;14.60;43.50;;;;;;4991889;28;20398;-78
2021/11/07 15:48:27;;;;;;;8.73;4.05;;;14.40;45.00;;;;;;4989812;28;20390;-78
2021/11/07 15:53:28;;;;;;;5.60;3.65;;;13.90;43.30;;;;;;4993688;28;20034;-73
2021/11/07 15:56:13;;;;;;;7.35;4.38;;;13.60;42.80;;;;;;4993701;28;20026;-77
2021/11/07 16:12:06;;;;;;;10.07;5.45;;;12.30;44.80;;;;;;4990742;28;20117;-73
2021/11/07 16:14:34;;;;;;;8.68;5.05;;;12.10;46.60;;;;;;4993887;28;20061;-76
2021/11/07 16:17:03;;;;;;;7.32;4.47;;;11.40;49.60;;;;;;4993843;28;20022;-76
2021/11/07 16:19:32;;;;;;;12.10;4.95;;;11.10;50.20;;;;;;4992040;28;20113;-77
2021/11/07 16:21:58;;;;;;;15.95;5.15;;;10.90;51.80;;;;;;4998562;28;20010;-76
2021/11/07 16:24:28;;;;;;;10.65;4.03;;;10.70;51.90;;;;;;5000803;28;20022;-73
2021/11/07 16:26:56;;;;;;;7.07;4.00;;;10.70;52.20;;;;;;5000396;28;20042;-77
2021/11/07 16:29:27;;;;;;;;;;;10.60;53.60;;;;;;4992901;28;20449;-80
2021/11/07 16:32:15;;;;;;;10.68;5.47;;;10.50;53.80;;;;;;4993890;28;19913;-76
2021/11/07 16:35:07;;;;;;;10.05;5.78;;;10.50;53.90;;;;;;5004319;28;20076;-76
2021/11/07 16:37:40;;;;;;;12.55;7.30;;;10.40;53.90;;;;;;4954390;28;20072;-78
2021/11/07 16:40:23;;;;;;;15.70;10.25;;;10.20;53.80;;;;;;4988671;28;20038;-76
2021/11/07 16:42:49;;;;;;;14.77;9.05;;;10.10;53.50;;;;;;4990326;28;20026;-74